sensor_id;sensor_type;location;lat;lon;timestamp;P1;durP1;ratioP1;P2;durP2;ratioP2
32295;SDS011;18781;51.550;5.418;2022-07-23T00:01:21;7.72;;;3.75;;
32295;SDS011;18781;51.550;5.418;2022-07-23T00:03:47;6.55;;;3.90;;
32295;SDS011;18781;51.550;5.418;2022-07-23T00:06:13;5.25;;;4.00;;
32295;SDS011;18781;51.550;5.418;2022-07-23T00:08:39;8.00;;;3.70;;
32295;SDS011;18781;51.550;5.418;2022-07-23T00:11:04;6.03;;;3.22;;
32295;SDS011;18781;51.550;5.418;2022-07-23T00:13:30;6.85;;;3.50;;
32295;SDS011;18781;51.550;5.418;2022-07-23T00:15:56;8.40;;;4.00;;
32295;SDS011;18781;51.550;5.418;2022-07-23T00:18:22;6.88;;;3.83;;
32295;SDS011;18781;51.550;5.418;2022-07-23T00:20:47;8.30;;;3.95;;
32295;SDS011;18781;51.550;5.418;2022-07-23T00:23:13;7.05;;;3.95;;
32295;SDS011;18781;51.550;5.418;2022-07-23T00:25:39;7.88;;;3.95;;
32295;SDS011;18781;51.550;5.418;2022-07-23T00:28:05;11.75;;;3.58;;
32295;SDS011;18781;51.550;5.418;2022-07-23T00:30:30;9.27;;;4.13;;
32295;SDS011;18781;51.550;5.418;2022-07-23T00:32:58;6.70;;;3.95;;
32295;SDS011;18781;51.550;5.418;2022-07-23T00:35:27;6.30;;;3.63;;
32295;SDS011;18781;51.550;5.418;2022-07-23T00:37:55;10.53;;;3.93;;
32295;SDS011;18781;51.550;5.418;2022-07-23T00:40:21;4.93;;;3.38;;
32295;SDS011;18781;51.550;5.418;2022-07-23T00:42:47;6.35;;;3.60;;
32295;SDS011;18781;51.550;5.418;2022-07-23T00:45:13;8.65;;;3.78;;
32295;SDS011;18781;51.550;5.418;2022-07-23T00:47:38;5.88;;;3.85;;
32295;SDS011;18781;51.550;5.418;2022-07-23T00:50:05;6.10;;;3.63;;
32295;SDS011;18781;51.550;5.418;2022-07-23T00:52:32;8.05;;;3.85;;
32295;SDS011;18781;51.550;5.418;2022-07-23T00:54:58;6.68;;;4.07;;
32295;SDS011;18781;51.550;5.418;2022-07-23T00:57:24;5.45;;;3.78;;
32295;SDS011;18781;51.550;5.418;2022-07-23T00:59:50;8.25;;;3.92;;
32295;SDS011;18781;51.550;5.418;2022-07-23T01:02:16;7.60;;;4.05;;
32295;SDS011;18781;51.550;5.418;2022-07-23T01:04:41;6.40;;;4.00;;
32295;SDS011;18781;51.550;5.418;2022-07-23T01:07:07;7.80;;;4.05;;
32295;SDS011;18781;51.550;5.418;2022-07-23T01:09:33;6.85;;;3.85;;
32295;SDS011;18781;51.550;5.418;2022-07-23T01:11:59;5.93;;;4.07;;
32295;SDS011;18781;51.550;5.418;2022-07-23T01:14:25;9.02;;;4.15;;
32295;SDS011;18781;51.550;5.418;2022-07-23T01:16:51;6.28;;;3.80;;
32295;SDS011;18781;51.550;5.418;2022-07-23T01:19:17;8.05;;;3.90;;
32295;SDS011;18781;51.550;5.418;2022-07-23T01:21:44;6.93;;;3.90;;
32295;SDS011;18781;51.550;5.418;2022-07-23T01:24:11;9.10;;;4.32;;
32295;SDS011;18781;51.550;5.418;2022-07-23T01:26:39;9.13;;;4.53;;
32295;SDS011;18781;51.550;5.418;2022-07-23T01:29:06;6.10;;;3.53;;
32295;SDS011;18781;51.550;5.418;2022-07-23T01:31:32;5.88;;;3.85;;
32295;SDS011;18781;51.550;5.418;2022-07-23T01:33:57;5.30;;;4.00;;
32295;SDS011;18781;51.550;5.418;2022-07-23T01:36:23;6.72;;;4.00;;
32295;SDS011;18781;51.550;5.418;2022-07-23T01:38:48;9.00;;;3.92;;
32295;SDS011;18781;51.550;5.418;2022-07-23T01:41:14;4.72;;;4.07;;
32295;SDS011;18781;51.550;5.418;2022-07-23T01:43:40;9.57;;;4.10;;
32295;SDS011;18781;51.550;5.418;2022-07-23T01:46:05;6.22;;;4.15;;
32295;SDS011;18781;51.550;5.418;2022-07-23T01:48:31;6.63;;;3.65;;
32295;SDS011;18781;51.550;5.418;2022-07-23T01:50:56;8.20;;;4.47;;
32295;SDS011;18781;51.550;5.418;2022-07-23T01:53:22;4.65;;;3.63;;
32295;SDS011;18781;51.550;5.418;2022-07-23T01:55:48;10.25;;;4.20;;
32295;SDS011;18781;51.550;5.418;2022-07-23T01:58:13;10.30;;;3.88;;
32295;SDS011;18781;51.550;5.418;2022-07-23T02:00:39;5.75;;;3.78;;
32295;SDS011;18781;51.550;5.418;2022-07-23T02:03:04;8.43;;;4.20;;
32295;SDS011;18781;51.550;5.418;2022-07-23T02:05:30;5.55;;;3.88;;
32295;SDS011;18781;51.550;5.418;2022-07-23T02:07:57;9.90;;;4.60;;
32295;SDS011;18781;51.550;5.418;2022-07-23T02:10:22;10.32;;;4.32;;
32295;SDS011;18781;51.550;5.418;2022-07-23T02:12:48;9.60;;;4.47;;
32295;SDS011;18781;51.550;5.418;2022-07-23T02:15:14;8.23;;;4.70;;
32295;SDS011;18781;51.550;5.418;2022-07-23T02:17:39;7.88;;;5.00;;
32295;SDS011;18781;51.550;5.418;2022-07-23T02:20:06;8.73;;;4.97;;
32295;SDS011;18781;51.550;5.418;2022-07-23T02:22:33;7.30;;;4.80;;
32295;SDS011;18781;51.550;5.418;2022-07-23T02:24:58;6.53;;;4.70;;
32295;SDS011;18781;51.550;5.418;2022-07-23T02:27:24;10.60;;;4.50;;
32295;SDS011;18781;51.550;5.418;2022-07-23T02:29:49;8.52;;;5.07;;
32295;SDS011;18781;51.550;5.418;2022-07-23T02:32:15;6.57;;;4.75;;
32295;SDS011;18781;51.550;5.418;2022-07-23T02:34:41;8.35;;;4.80;;
32295;SDS011;18781;51.550;5.418;2022-07-23T02:37:07;10.82;;;4.97;;
32295;SDS011;18781;51.550;5.418;2022-07-23T02:39:33;8.07;;;4.93;;
32295;SDS011;18781;51.550;5.418;2022-07-23T02:42:00;11.50;;;5.10;;
32295;SDS011;18781;51.550;5.418;2022-07-23T02:44:25;8.13;;;5.50;;
32295;SDS011;18781;51.550;5.418;2022-07-23T02:46:51;8.15;;;5.18;;
32295;SDS011;18781;51.550;5.418;2022-07-23T02:49:17;12.20;;;6.32;;
32295;SDS011;18781;51.550;5.418;2022-07-23T02:51:42;8.15;;;5.82;;
32295;SDS011;18781;51.550;5.418;2022-07-23T02:54:08;8.75;;;5.95;;
32295;SDS011;18781;51.550;5.418;2022-07-23T02:56:34;12.75;;;5.72;;
32295;SDS011;18781;51.550;5.418;2022-07-23T02:58:59;9.07;;;6.35;;
32295;SDS011;18781;51.550;5.418;2022-07-23T03:01:25;9.55;;;5.93;;
32295;SDS011;18781;51.550;5.418;2022-07-23T03:03:50;9.50;;;6.35;;
32295;SDS011;18781;51.550;5.418;2022-07-23T03:06:16;9.75;;;5.07;;
32295;SDS011;18781;51.550;5.418;2022-07-23T03:08:42;14.80;;;5.25;;
32295;SDS011;18781;51.550;5.418;2022-07-23T03:11:07;9.45;;;5.75;;
32295;SDS011;18781;51.550;5.418;2022-07-23T03:13:36;9.27;;;6.50;;
32295;SDS011;18781;51.550;5.418;2022-07-23T03:16:02;17.92;;;7.47;;
32295;SDS011;18781;51.550;5.418;2022-07-23T03:18:28;8.52;;;7.50;;
32295;SDS011;18781;51.550;5.418;2022-07-23T03:20:54;13.57;;;8.07;;
32295;SDS011;18781;51.550;5.418;2022-07-23T03:23:20;11.88;;;7.55;;
32295;SDS011;18781;51.550;5.418;2022-07-23T03:25:45;12.25;;;7.60;;
32295;SDS011;18781;51.550;5.418;2022-07-23T03:28:13;12.05;;;7.93;;
32295;SDS011;18781;51.550;5.418;2022-07-23T03:30:40;12.27;;;7.47;;
32295;SDS011;18781;51.550;5.418;2022-07-23T03:33:06;11.15;;;6.82;;
32295;SDS011;18781;51.550;5.418;2022-07-23T03:35:32;9.75;;;7.05;;
32295;SDS011;18781;51.550;5.418;2022-07-23T03:37:59;10.95;;;7.00;;
32295;SDS011;18781;51.550;5.418;2022-07-23T03:40:25;9.10;;;6.80;;
32295;SDS011;18781;51.550;5.418;2022-07-23T03:42:50;10.82;;;7.57;;
32295;SDS011;18781;51.550;5.418;2022-07-23T03:45:16;11.23;;;7.78;;
32295;SDS011;18781;51.550;5.418;2022-07-23T03:47:42;10.65;;;7.53;;
32295;SDS011;18781;51.550;5.418;2022-07-23T03:50:09;10.27;;;7.05;;
32295;SDS011;18781;51.550;5.418;2022-07-23T03:52:35;13.30;;;6.93;;
32295;SDS011;18781;51.550;5.418;2022-07-23T03:55:01;7.65;;;6.75;;
32295;SDS011;18781;51.550;5.418;2022-07-23T03:57:27;11.80;;;7.38;;
32295;SDS011;18781;51.550;5.418;2022-07-23T03:59:53;11.95;;;7.18;;
32295;SDS011;18781;51.550;5.418;2022-07-23T04:02:18;14.55;;;7.53;;
32295;SDS011;18781;51.550;5.418;2022-07-23T04:04:44;13.18;;;7.18;;
32295;SDS011;18781;51.550;5.418;2022-07-23T04:07:09;10.20;;;7.07;;
32295;SDS011;18781;51.550;5.418;2022-07-23T04:09:35;9.85;;;6.53;;
32295;SDS011;18781;51.550;5.418;2022-07-23T04:12:00;8.93;;;7.00;;
32295;SDS011;18781;51.550;5.418;2022-07-23T04:14:26;10.50;;;6.55;;
32295;SDS011;18781;51.550;5.418;2022-07-23T04:16:52;7.95;;;6.85;;
32295;SDS011;18781;51.550;5.418;2022-07-23T04:19:17;14.38;;;7.05;;
32295;SDS011;18781;51.550;5.418;2022-07-23T04:21:43;10.23;;;7.93;;
32295;SDS011;18781;51.550;5.418;2022-07-23T04:24:08;14.65;;;8.57;;
32295;SDS011;18781;51.550;5.418;2022-07-23T04:26:34;13.13;;;9.23;;
32295;SDS011;18781;51.550;5.418;2022-07-23T04:28:59;9.43;;;7.45;;
32295;SDS011;18781;51.550;5.418;2022-07-23T04:31:25;13.63;;;7.85;;
32295;SDS011;18781;51.550;5.418;2022-07-23T04:33:51;10.60;;;7.70;;
32295;SDS011;18781;51.550;5.418;2022-07-23T04:36:16;11.30;;;8.13;;
32295;SDS011;18781;51.550;5.418;2022-07-23T04:38:42;14.25;;;8.38;;
32295;SDS011;18781;51.550;5.418;2022-07-23T04:41:07;11.93;;;8.45;;
32295;SDS011;18781;51.550;5.418;2022-07-23T04:43:33;14.25;;;7.90;;
32295;SDS011;18781;51.550;5.418;2022-07-23T04:45:58;13.07;;;8.27;;
32295;SDS011;18781;51.550;5.418;2022-07-23T04:48:24;16.33;;;8.30;;
32295;SDS011;18781;51.550;5.418;2022-07-23T04:50:49;9.13;;;7.63;;
32295;SDS011;18781;51.550;5.418;2022-07-23T04:53:15;16.52;;;8.68;;
32295;SDS011;18781;51.550;5.418;2022-07-23T04:55:41;14.65;;;8.65;;
32295;SDS011;18781;51.550;5.418;2022-07-23T04:58:06;12.15;;;8.38;;
32295;SDS011;18781;51.550;5.418;2022-07-23T05:00:32;13.32;;;8.25;;
32295;SDS011;18781;51.550;5.418;2022-07-23T05:02:58;15.45;;;9.18;;
32295;SDS011;18781;51.550;5.418;2022-07-23T05:05:23;12.85;;;8.55;;
32295;SDS011;18781;51.550;5.418;2022-07-23T05:07:49;14.05;;;9.23;;
32295;SDS011;18781;51.550;5.418;2022-07-23T05:10:14;19.00;;;10.15;;
32295;SDS011;18781;51.550;5.418;2022-07-23T05:12:40;12.52;;;9.73;;
32295;SDS011;18781;51.550;5.418;2022-07-23T05:15:05;17.30;;;11.77;;
32295;SDS011;18781;51.550;5.418;2022-07-23T05:17:31;15.18;;;11.32;;
32295;SDS011;18781;51.550;5.418;2022-07-23T05:19:57;17.48;;;12.18;;
32295;SDS011;18781;51.550;5.418;2022-07-23T05:22:22;18.98;;;12.02;;
32295;SDS011;18781;51.550;5.418;2022-07-23T05:24:48;19.05;;;11.45;;
32295;SDS011;18781;51.550;5.418;2022-07-23T05:27:13;14.48;;;10.65;;
32295;SDS011;18781;51.550;5.418;2022-07-23T05:29:39;15.50;;;10.57;;
32295;SDS011;18781;51.550;5.418;2022-07-23T05:32:05;15.45;;;11.27;;
32295;SDS011;18781;51.550;5.418;2022-07-23T05:34:30;15.82;;;11.75;;
32295;SDS011;18781;51.550;5.418;2022-07-23T05:36:56;14.40;;;11.10;;
32295;SDS011;18781;51.550;5.418;2022-07-23T05:39:21;21.15;;;11.35;;
32295;SDS011;18781;51.550;5.418;2022-07-23T05:41:47;12.82;;;10.88;;
32295;SDS011;18781;51.550;5.418;2022-07-23T05:44:13;16.42;;;10.90;;
32295;SDS011;18781;51.550;5.418;2022-07-23T05:46:38;15.27;;;10.82;;
32295;SDS011;18781;51.550;5.418;2022-07-23T05:49:04;16.25;;;10.73;;
32295;SDS011;18781;51.550;5.418;2022-07-23T05:51:29;16.10;;;10.65;;
32295;SDS011;18781;51.550;5.418;2022-07-23T05:53:55;13.65;;;9.98;;
32295;SDS011;18781;51.550;5.418;2022-07-23T05:56:21;16.33;;;11.45;;
32295;SDS011;18781;51.550;5.418;2022-07-23T05:58:46;15.35;;;10.75;;
32295;SDS011;18781;51.550;5.418;2022-07-23T06:01:12;18.45;;;11.20;;
32295;SDS011;18781;51.550;5.418;2022-07-23T06:03:38;17.30;;;11.98;;
32295;SDS011;18781;51.550;5.418;2022-07-23T06:06:04;13.82;;;11.18;;
32295;SDS011;18781;51.550;5.418;2022-07-23T06:08:30;14.85;;;11.05;;
32295;SDS011;18781;51.550;5.418;2022-07-23T06:10:56;16.85;;;11.93;;
32295;SDS011;18781;51.550;5.418;2022-07-23T06:13:21;15.68;;;11.43;;
32295;SDS011;18781;51.550;5.418;2022-07-23T06:15:47;13.38;;;10.77;;
32295;SDS011;18781;51.550;5.418;2022-07-23T06:18:13;14.60;;;10.93;;
32295;SDS011;18781;51.550;5.418;2022-07-23T06:20:39;14.82;;;10.30;;
32295;SDS011;18781;51.550;5.418;2022-07-23T06:23:05;14.43;;;11.07;;
32295;SDS011;18781;51.550;5.418;2022-07-23T06:25:31;19.33;;;11.57;;
32295;SDS011;18781;51.550;5.418;2022-07-23T06:27:56;20.25;;;11.02;;
32295;SDS011;18781;51.550;5.418;2022-07-23T06:30:22;12.95;;;10.10;;
32295;SDS011;18781;51.550;5.418;2022-07-23T06:32:48;18.67;;;11.68;;
32295;SDS011;18781;51.550;5.418;2022-07-23T06:35:14;16.35;;;9.63;;
32295;SDS011;18781;51.550;5.418;2022-07-23T06:37:40;13.68;;;9.65;;
32295;SDS011;18781;51.550;5.418;2022-07-23T06:40:06;17.52;;;9.70;;
32295;SDS011;18781;51.550;5.418;2022-07-23T06:42:34;13.52;;;8.88;;
32295;SDS011;18781;51.550;5.418;2022-07-23T06:45:02;13.43;;;8.70;;
32295;SDS011;18781;51.550;5.418;2022-07-23T06:47:28;11.30;;;8.27;;
32295;SDS011;18781;51.550;5.418;2022-07-23T06:49:54;11.25;;;8.63;;
32295;SDS011;18781;51.550;5.418;2022-07-23T06:52:20;14.18;;;9.23;;
32295;SDS011;18781;51.550;5.418;2022-07-23T06:54:45;11.98;;;8.80;;
32295;SDS011;18781;51.550;5.418;2022-07-23T06:57:11;12.90;;;8.30;;
32295;SDS011;18781;51.550;5.418;2022-07-23T06:59:36;14.00;;;8.13;;
32295;SDS011;18781;51.550;5.418;2022-07-23T07:02:05;17.77;;;8.20;;
32295;SDS011;18781;51.550;5.418;2022-07-23T07:04:31;12.25;;;7.93;;
32295;SDS011;18781;51.550;5.418;2022-07-23T07:06:57;12.73;;;8.27;;
32295;SDS011;18781;51.550;5.418;2022-07-23T07:09:22;10.60;;;7.63;;
32295;SDS011;18781;51.550;5.418;2022-07-23T07:11:48;12.95;;;7.82;;
32295;SDS011;18781;51.550;5.418;2022-07-23T07:14:14;11.80;;;7.80;;
32295;SDS011;18781;51.550;5.418;2022-07-23T07:16:40;13.50;;;8.27;;
32295;SDS011;18781;51.550;5.418;2022-07-23T07:19:05;13.27;;;7.40;;
32295;SDS011;18781;51.550;5.418;2022-07-23T07:21:31;13.80;;;7.63;;
32295;SDS011;18781;51.550;5.418;2022-07-23T07:23:56;10.95;;;7.35;;
32295;SDS011;18781;51.550;5.418;2022-07-23T07:26:22;12.88;;;6.68;;
32295;SDS011;18781;51.550;5.418;2022-07-23T07:28:48;11.32;;;6.63;;
32295;SDS011;18781;51.550;5.418;2022-07-23T07:31:13;12.82;;;6.40;;
32295;SDS011;18781;51.550;5.418;2022-07-23T07:33:39;10.23;;;5.95;;
32295;SDS011;18781;51.550;5.418;2022-07-23T07:36:04;11.73;;;6.47;;
32295;SDS011;18781;51.550;5.418;2022-07-23T07:38:30;10.30;;;6.25;;
32295;SDS011;18781;51.550;5.418;2022-07-23T07:40:56;9.77;;;5.97;;
32295;SDS011;18781;51.550;5.418;2022-07-23T07:43:21;10.90;;;5.45;;
32295;SDS011;18781;51.550;5.418;2022-07-23T07:45:47;10.48;;;5.32;;
32295;SDS011;18781;51.550;5.418;2022-07-23T07:48:13;11.30;;;6.13;;
32295;SDS011;18781;51.550;5.418;2022-07-23T07:50:38;11.57;;;4.60;;
32295;SDS011;18781;51.550;5.418;2022-07-23T07:53:04;9.02;;;5.72;;
32295;SDS011;18781;51.550;5.418;2022-07-23T07:55:29;10.90;;;5.45;;
32295;SDS011;18781;51.550;5.418;2022-07-23T07:57:55;14.00;;;5.82;;
32295;SDS011;18781;51.550;5.418;2022-07-23T08:00:21;9.70;;;5.47;;
32295;SDS011;18781;51.550;5.418;2022-07-23T08:02:48;11.60;;;5.30;;
32295;SDS011;18781;51.550;5.418;2022-07-23T08:05:18;10.32;;;5.30;;
32295;SDS011;18781;51.550;5.418;2022-07-23T08:07:45;8.70;;;4.68;;
32295;SDS011;18781;51.550;5.418;2022-07-23T08:10:11;10.60;;;4.90;;
32295;SDS011;18781;51.550;5.418;2022-07-23T08:12:47;8.98;;;4.32;;
32295;SDS011;18781;51.550;5.418;2022-07-23T08:15:14;10.55;;;4.60;;
32295;SDS011;18781;51.550;5.418;2022-07-23T08:17:42;8.77;;;5.43;;
32295;SDS011;18781;51.550;5.418;2022-07-23T08:20:09;10.95;;;5.30;;
32295;SDS011;18781;51.550;5.418;2022-07-23T08:25:08;11.15;;;6.15;;
32295;SDS011;18781;51.550;5.418;2022-07-23T08:27:34;11.05;;;5.60;;
32295;SDS011;18781;51.550;5.418;2022-07-23T08:29:59;12.43;;;5.95;;
32295;SDS011;18781;51.550;5.418;2022-07-23T08:32:25;10.90;;;5.82;;
32295;SDS011;18781;51.550;5.418;2022-07-23T08:34:50;9.02;;;5.25;;
32295;SDS011;18781;51.550;5.418;2022-07-23T08:37:16;10.18;;;5.90;;
32295;SDS011;18781;51.550;5.418;2022-07-23T08:39:42;9.07;;;4.97;;
32295;SDS011;18781;51.550;5.418;2022-07-23T08:42:07;9.25;;;5.05;;
32295;SDS011;18781;51.550;5.418;2022-07-23T08:44:34;10.18;;;5.72;;
32295;SDS011;18781;51.550;5.418;2022-07-23T08:47:00;9.23;;;4.30;;
32295;SDS011;18781;51.550;5.418;2022-07-23T08:49:27;8.40;;;5.15;;
32295;SDS011;18781;51.550;5.418;2022-07-23T08:51:54;10.48;;;5.20;;
32295;SDS011;18781;51.550;5.418;2022-07-23T08:54:21;10.45;;;5.15;;
32295;SDS011;18781;51.550;5.418;2022-07-23T08:56:47;8.25;;;4.55;;
32295;SDS011;18781;51.550;5.418;2022-07-23T08:59:13;9.55;;;4.40;;
32295;SDS011;18781;51.550;5.418;2022-07-23T09:01:39;10.57;;;4.75;;
32295;SDS011;18781;51.550;5.418;2022-07-23T09:04:05;9.95;;;4.82;;
32295;SDS011;18781;51.550;5.418;2022-07-23T09:06:30;7.95;;;4.18;;
32295;SDS011;18781;51.550;5.418;2022-07-23T09:08:56;8.40;;;4.55;;
32295;SDS011;18781;51.550;5.418;2022-07-23T09:11:22;12.80;;;4.75;;
32295;SDS011;18781;51.550;5.418;2022-07-23T09:13:51;8.27;;;5.50;;
32295;SDS011;18781;51.550;5.418;2022-07-23T09:16:19;7.93;;;4.40;;
32295;SDS011;18781;51.550;5.418;2022-07-23T09:18:56;14.98;;;4.30;;
32295;SDS011;18781;51.550;5.418;2022-07-23T09:21:27;12.40;;;4.32;;
32295;SDS011;18781;51.550;5.418;2022-07-23T09:26:28;7.93;;;4.40;;
32295;SDS011;18781;51.550;5.418;2022-07-23T09:31:52;8.07;;;4.20;;
32295;SDS011;18781;51.550;5.418;2022-07-23T09:34:26;6.60;;;4.10;;
32295;SDS011;18781;51.550;5.418;2022-07-23T09:36:56;8.80;;;5.50;;
32295;SDS011;18781;51.550;5.418;2022-07-23T09:42:12;12.35;;;4.35;;
32295;SDS011;18781;51.550;5.418;2022-07-23T09:44:41;7.47;;;3.85;;
32295;SDS011;18781;51.550;5.418;2022-07-23T09:47:07;10.73;;;4.72;;
32295;SDS011;18781;51.550;5.418;2022-07-23T09:49:33;6.78;;;4.38;;
32295;SDS011;18781;51.550;5.418;2022-07-23T09:51:59;10.40;;;4.28;;
32295;SDS011;18781;51.550;5.418;2022-07-23T09:54:28;7.27;;;3.93;;
32295;SDS011;18781;51.550;5.418;2022-07-23T09:57:03;7.85;;;4.20;;
32295;SDS011;18781;51.550;5.418;2022-07-23T09:59:35;6.15;;;4.13;;
32295;SDS011;18781;51.550;5.418;2022-07-23T10:02:03;6.50;;;3.92;;
32295;SDS011;18781;51.550;5.418;2022-07-23T10:04:30;9.65;;;4.35;;
32295;SDS011;18781;51.550;5.418;2022-07-23T10:06:59;5.82;;;3.67;;
32295;SDS011;18781;51.550;5.418;2022-07-23T10:09:29;8.55;;;3.70;;
32295;SDS011;18781;51.550;5.418;2022-07-23T10:11:57;10.57;;;4.07;;
32295;SDS011;18781;51.550;5.418;2022-07-23T10:14:38;7.88;;;4.00;;
32295;SDS011;18781;51.550;5.418;2022-07-23T10:17:05;6.35;;;3.70;;
32295;SDS011;18781;51.550;5.418;2022-07-23T10:19:32;4.43;;;3.50;;
32295;SDS011;18781;51.550;5.418;2022-07-23T10:22:02;5.45;;;3.60;;
32295;SDS011;18781;51.550;5.418;2022-07-23T10:36:57;7.13;;;3.10;;
32295;SDS011;18781;51.550;5.418;2022-07-23T10:39:33;4.55;;;3.03;;
32295;SDS011;18781;51.550;5.418;2022-07-23T10:42:16;6.30;;;2.58;;
32295;SDS011;18781;51.550;5.418;2022-07-23T10:44:48;8.23;;;2.90;;
32295;SDS011;18781;51.550;5.418;2022-07-23T10:47:29;6.55;;;2.80;;
32295;SDS011;18781;51.550;5.418;2022-07-23T10:50:26;4.80;;;2.85;;
32295;SDS011;18781;51.550;5.418;2022-07-23T10:58:03;3.83;;;2.17;;
32295;SDS011;18781;51.550;5.418;2022-07-23T11:00:30;7.78;;;2.88;;
32295;SDS011;18781;51.550;5.418;2022-07-23T11:03:04;7.50;;;2.80;;
32295;SDS011;18781;51.550;5.418;2022-07-23T11:05:50;3.97;;;2.35;;
32295;SDS011;18781;51.550;5.418;2022-07-23T11:08:19;3.15;;;1.90;;
32295;SDS011;18781;51.550;5.418;2022-07-23T11:10:46;5.75;;;2.45;;
32295;SDS011;18781;51.550;5.418;2022-07-23T11:13:26;5.13;;;2.80;;
32295;SDS011;18781;51.550;5.418;2022-07-23T11:21:53;3.38;;;2.33;;
32295;SDS011;18781;51.550;5.418;2022-07-23T11:32:02;5.28;;;2.60;;
32295;SDS011;18781;51.550;5.418;2022-07-23T11:34:40;3.53;;;2.42;;
32295;SDS011;18781;51.550;5.418;2022-07-23T11:37:08;4.82;;;2.63;;
32295;SDS011;18781;51.550;5.418;2022-07-23T11:39:35;4.60;;;2.65;;
32295;SDS011;18781;51.550;5.418;2022-07-23T11:42:03;6.38;;;2.40;;
32295;SDS011;18781;51.550;5.418;2022-07-23T11:44:39;5.43;;;2.85;;
32295;SDS011;18781;51.550;5.418;2022-07-23T11:47:05;6.43;;;2.50;;
32295;SDS011;18781;51.550;5.418;2022-07-23T11:49:32;3.35;;;2.28;;
32295;SDS011;18781;51.550;5.418;2022-07-23T11:52:12;7.68;;;2.83;;
32295;SDS011;18781;51.550;5.418;2022-07-23T11:54:48;6.78;;;2.60;;
32295;SDS011;18781;51.550;5.418;2022-07-23T11:57:26;3.78;;;2.90;;
32295;SDS011;18781;51.550;5.418;2022-07-23T12:00:13;5.13;;;2.60;;
32295;SDS011;18781;51.550;5.418;2022-07-23T12:02:45;5.45;;;3.40;;
32295;SDS011;18781;51.550;5.418;2022-07-23T12:05:15;4.45;;;2.75;;
32295;SDS011;18781;51.550;5.418;2022-07-23T12:07:47;5.68;;;2.80;;
32295;SDS011;18781;51.550;5.418;2022-07-23T12:10:17;3.67;;;3.13;;
32295;SDS011;18781;51.550;5.418;2022-07-23T12:12:52;2.88;;;2.00;;
32295;SDS011;18781;51.550;5.418;2022-07-23T12:15:30;5.97;;;3.17;;
32295;SDS011;18781;51.550;5.418;2022-07-23T12:17:58;7.50;;;2.78;;
32295;SDS011;18781;51.550;5.418;2022-07-23T12:20:27;9.55;;;3.10;;
32295;SDS011;18781;51.550;5.418;2022-07-23T12:23:01;16.88;;;3.47;;
32295;SDS011;18781;51.550;5.418;2022-07-23T12:25:30;6.85;;;3.13;;
32295;SDS011;18781;51.550;5.418;2022-07-23T12:28:02;4.32;;;3.30;;
32295;SDS011;18781;51.550;5.418;2022-07-23T12:33:04;4.65;;;2.60;;
32295;SDS011;18781;51.550;5.418;2022-07-23T12:35:32;5.80;;;3.17;;
32295;SDS011;18781;51.550;5.418;2022-07-23T12:38:02;5.35;;;3.10;;
32295;SDS011;18781;51.550;5.418;2022-07-23T12:40:31;8.50;;;3.15;;
32295;SDS011;18781;51.550;5.418;2022-07-23T12:45:52;5.35;;;3.30;;
32295;SDS011;18781;51.550;5.418;2022-07-23T12:48:20;6.28;;;3.28;;
32295;SDS011;18781;51.550;5.418;2022-07-23T12:53:20;7.63;;;3.63;;
32295;SDS011;18781;51.550;5.418;2022-07-23T12:55:49;5.10;;;3.20;;
32295;SDS011;18781;51.550;5.418;2022-07-23T12:58:19;5.15;;;3.10;;
32295;SDS011;18781;51.550;5.418;2022-07-23T13:00:59;4.95;;;2.90;;
32295;SDS011;18781;51.550;5.418;2022-07-23T13:03:34;5.72;;;3.00;;
32295;SDS011;18781;51.550;5.418;2022-07-23T13:06:05;3.78;;;2.70;;
32295;SDS011;18781;51.550;5.418;2022-07-23T13:08:37;5.88;;;2.92;;
32295;SDS011;18781;51.550;5.418;2022-07-23T13:11:04;5.15;;;3.47;;
32295;SDS011;18781;51.550;5.418;2022-07-23T13:13:31;5.00;;;2.88;;
32295;SDS011;18781;51.550;5.418;2022-07-23T13:15:58;4.13;;;2.83;;
32295;SDS011;18781;51.550;5.418;2022-07-23T13:18:25;4.88;;;2.53;;
32295;SDS011;18781;51.550;5.418;2022-07-23T13:20:51;5.10;;;2.53;;
32295;SDS011;18781;51.550;5.418;2022-07-23T13:23:17;5.28;;;2.83;;
32295;SDS011;18781;51.550;5.418;2022-07-23T13:25:43;9.00;;;2.97;;
32295;SDS011;18781;51.550;5.418;2022-07-23T13:28:09;4.47;;;2.90;;
32295;SDS011;18781;51.550;5.418;2022-07-23T13:30:36;3.33;;;2.20;;
32295;SDS011;18781;51.550;5.418;2022-07-23T13:33:03;6.13;;;3.05;;
32295;SDS011;18781;51.550;5.418;2022-07-23T13:35:29;5.85;;;2.78;;
32295;SDS011;18781;51.550;5.418;2022-07-23T13:37:55;6.90;;;3.35;;
32295;SDS011;18781;51.550;5.418;2022-07-23T13:40:21;4.40;;;3.13;;
32295;SDS011;18781;51.550;5.418;2022-07-23T13:42:46;5.43;;;2.55;;
32295;SDS011;18781;51.550;5.418;2022-07-23T13:45:12;5.25;;;2.85;;
32295;SDS011;18781;51.550;5.418;2022-07-23T13:47:38;5.90;;;2.60;;
32295;SDS011;18781;51.550;5.418;2022-07-23T13:50:03;6.13;;;2.90;;
32295;SDS011;18781;51.550;5.418;2022-07-23T13:52:30;4.47;;;2.30;;
32295;SDS011;18781;51.550;5.418;2022-07-23T13:54:56;5.85;;;2.72;;
32295;SDS011;18781;51.550;5.418;2022-07-23T13:57:22;4.32;;;2.63;;
32295;SDS011;18781;51.550;5.418;2022-07-23T13:59:47;5.28;;;2.50;;
32295;SDS011;18781;51.550;5.418;2022-07-23T14:02:14;4.90;;;2.13;;
32295;SDS011;18781;51.550;5.418;2022-07-23T14:04:41;4.37;;;2.70;;
32295;SDS011;18781;51.550;5.418;2022-07-23T14:07:07;7.10;;;2.60;;
32295;SDS011;18781;51.550;5.418;2022-07-23T14:09:33;3.72;;;2.40;;
32295;SDS011;18781;51.550;5.418;2022-07-23T14:11:59;4.57;;;2.22;;
32295;SDS011;18781;51.550;5.418;2022-07-23T14:14:25;4.53;;;2.28;;
32295;SDS011;18781;51.550;5.418;2022-07-23T14:16:50;3.95;;;2.45;;
32295;SDS011;18781;51.550;5.418;2022-07-23T14:19:16;8.27;;;3.28;;
32295;SDS011;18781;51.550;5.418;2022-07-23T14:21:42;4.32;;;2.42;;
32295;SDS011;18781;51.550;5.418;2022-07-23T14:24:08;7.70;;;2.20;;
32295;SDS011;18781;51.550;5.418;2022-07-23T14:26:33;5.15;;;1.88;;
32295;SDS011;18781;51.550;5.418;2022-07-23T14:28:59;5.15;;;2.35;;
32295;SDS011;18781;51.550;5.418;2022-07-23T14:31:25;4.70;;;2.30;;
32295;SDS011;18781;51.550;5.418;2022-07-23T14:33:51;4.53;;;2.03;;
32295;SDS011;18781;51.550;5.418;2022-07-23T14:36:16;3.75;;;2.30;;
32295;SDS011;18781;51.550;5.418;2022-07-23T14:38:42;6.68;;;2.63;;
32295;SDS011;18781;51.550;5.418;2022-07-23T14:41:08;4.47;;;2.33;;
32295;SDS011;18781;51.550;5.418;2022-07-23T14:43:34;4.70;;;2.30;;
32295;SDS011;18781;51.550;5.418;2022-07-23T14:46:00;3.30;;;2.50;;
32295;SDS011;18781;51.550;5.418;2022-07-23T14:48:26;3.20;;;2.00;;
32295;SDS011;18781;51.550;5.418;2022-07-23T14:50:51;5.55;;;2.60;;
32295;SDS011;18781;51.550;5.418;2022-07-23T14:53:17;4.15;;;2.05;;
32295;SDS011;18781;51.550;5.418;2022-07-23T14:55:43;3.03;;;2.00;;
32295;SDS011;18781;51.550;5.418;2022-07-23T14:58:08;5.53;;;2.10;;
32295;SDS011;18781;51.550;5.418;2022-07-23T15:00:34;6.93;;;2.35;;
32295;SDS011;18781;51.550;5.418;2022-07-23T15:03:00;6.50;;;2.40;;
32295;SDS011;18781;51.550;5.418;2022-07-23T15:05:25;5.35;;;2.10;;
32295;SDS011;18781;51.550;5.418;2022-07-23T15:07:51;4.75;;;2.20;;
32295;SDS011;18781;51.550;5.418;2022-07-23T15:10:17;4.82;;;2.00;;
32295;SDS011;18781;51.550;5.418;2022-07-23T15:12:42;3.55;;;2.08;;
32295;SDS011;18781;51.550;5.418;2022-07-23T15:15:08;5.03;;;2.10;;
32295;SDS011;18781;51.550;5.418;2022-07-23T15:17:34;3.35;;;2.15;;
32295;SDS011;18781;51.550;5.418;2022-07-23T15:20:00;3.78;;;2.60;;
32295;SDS011;18781;51.550;5.418;2022-07-23T15:22:25;4.90;;;2.33;;
32295;SDS011;18781;51.550;5.418;2022-07-23T15:24:51;3.45;;;2.10;;
32295;SDS011;18781;51.550;5.418;2022-07-23T15:27:17;6.85;;;2.63;;
32295;SDS011;18781;51.550;5.418;2022-07-23T15:29:43;3.55;;;2.40;;